Time;durP1;ratioP1;P1;durP2;ratioP2;P2;SDS_P1;SDS_P2;PMS_P1;PMS_P2;Temp;Humidity;BMP_temperature;BMP_pressure;BME280_temperature;BME280_humidity;BME280_pressure;Samples;Min_cycle;Max_cycle;Signal;HPM_P1;HPM_P2
2022/01/19 00:01:54;;;;;;;1.90;0.80;;;;;;;-0.97;51.12;101352.80;117313;1184;23479;-61
2022/01/19 00:04:23;;;;;;;5.20;1.00;;;;;;;-1.04;51.00;101363.66;117240;1186;21853;-60
2022/01/19 00:06:51;;;;;;;4.10;1.20;;;;;;;-1.09;51.14;101367.56;117262;1186;21865;-53
2022/01/19 00:09:20;;;;;;;2.90;1.00;;;;;;;-1.13;50.90;101373.52;117213;1182;24169;-53
2022/01/19 00:11:48;;;;;;;4.50;1.90;;;;;;;-1.20;50.99;101372.02;117286;1185;21858;-59
2022/01/19 00:14:26;;;;;;;5.40;1.40;;;;;;;-1.26;51.08;101373.75;117180;1184;23464;-61
2022/01/19 00:16:58;;;;;;;2.80;0.90;;;;;;;-1.33;51.02;101372.87;117190;1184;21904;-52
2022/01/19 00:19:26;;;;;;;2.70;1.00;;;;;;;-1.40;51.18;101377.36;117217;1183;22625;-54
2022/01/19 00:21:54;;;;;;;3.90;1.20;;;;;;;-1.45;51.35;101386.86;117233;1185;24176;-59
2022/01/19 00:24:23;;;;;;;3.50;1.20;;;;;;;-1.53;51.27;101389.25;117217;1181;23452;-53
2022/01/19 00:26:51;;;;;;;2.80;1.20;;;;;;;-1.58;51.09;101394.45;117237;1178;21858;-53
2022/01/19 00:29:19;;;;;;;3.80;1.20;;;;;;;-1.62;51.22;101394.26;117274;1184;22011;-53
2022/01/19 00:31:47;;;;;;;5.40;1.50;;;;;;;-1.66;51.34;101401.46;117204;1182;23634;-60
2022/01/19 00:34:15;;;;;;;2.90;1.00;;;;;;;-1.67;51.27;101397.96;117239;1183;22373;-61
2022/01/19 00:36:44;;;;;;;4.00;1.10;;;;;;;-1.69;51.20;101393.73;117267;1181;21846;-60
2022/01/19 00:39:12;;;;;;;2.80;1.10;;;;;;;-1.70;51.45;101397.42;117249;1182;21864;-54
2022/01/19 00:41:40;;;;;;;4.70;1.10;;;;;;;-1.72;51.48;101400.92;117053;1184;22944;-53
2022/01/19 00:44:09;;;;;;;4.60;1.20;;;;;;;-1.76;51.30;101392.30;117226;1182;23576;-52
2022/01/19 00:46:37;;;;;;;7.30;1.30;;;;;;;-1.81;51.35;101390.02;117244;1184;24184;-52
2022/01/19 00:49:05;;;;;;;3.50;1.40;;;;;;;-1.85;51.33;101392.16;117257;1185;21864;-60
2022/01/19 00:51:34;;;;;;;3.10;1.30;;;;;;;-1.89;51.31;101392.80;117226;1181;23475;-52
2022/01/19 00:54:02;;;;;;;2.30;1.00;;;;;;;-1.94;51.44;101391.00;117329;1185;21866;-52
2022/01/19 00:56:30;;;;;;;3.60;1.30;;;;;;;-1.98;51.50;101395.09;117227;1183;23580;-52
2022/01/19 00:58:59;;;;;;;4.40;1.20;;;;;;;-2.04;51.37;101392.69;117296;1185;23450;-52
2022/01/19 01:01:27;;;;;;;4.80;1.00;;;;;;;-2.10;51.51;101398.02;117295;1181;22561;-52
2022/01/19 01:03:56;;;;;;;2.50;1.00;;;;;;;-2.16;51.47;101397.48;117259;1182;22924;-52
2022/01/19 01:06:24;;;;;;;3.60;1.20;;;;;;;-2.22;51.60;101395.29;117290;1181;23562;-52
2022/01/19 01:08:52;;;;;;;5.20;1.60;;;;;;;-2.28;51.36;101394.65;117291;1185;21847;-52
2022/01/19 01:11:28;;;;;;;2.30;1.20;;;;;;;-2.35;51.35;101398.03;117254;1185;21873;-53
2022/01/19 01:17:12;;;;;;;3.50;1.30;;;;;;;-2.46;51.30;101400.67;117336;1181;23478;-60
2022/01/19 01:19:18;;;;;;;2.70;1.00;;;;;;;-2.50;51.37;101398.41;117201;1182;23104;-51
2022/01/19 01:21:46;;;;;;;3.70;1.70;;;;;;;-2.52;51.33;101394.98;117294;1182;24176;-59
2022/01/19 01:24:14;;;;;;;3.60;1.20;;;;;;;-2.55;51.53;101390.04;117241;1181;23455;-60
2022/01/19 01:26:43;;;;;;;3.50;1.50;;;;;;;-2.56;51.58;101390.86;117276;1185;23453;-60
2022/01/19 01:29:11;;;;;;;4.00;1.30;;;;;;;-2.52;51.45;101391.39;117488;1185;22925;-52
2022/01/19 01:31:39;;;;;;;2.10;0.70;;;;;;;-2.56;51.53;101389.80;117165;1183;23475;-51
2022/01/19 01:34:08;;;;;;;2.10;0.90;;;;;;;-2.59;51.56;101393.58;117273;1181;21848;-52
2022/01/19 01:36:36;;;;;;;3.20;1.30;;;;;;;-2.62;51.56;101391.67;117205;1181;23478;-60
2022/01/19 01:39:04;;;;;;;2.70;1.10;;;;;;;-2.65;51.64;101393.38;117251;1185;21957;-61
2022/01/19 01:41:33;;;;;;;2.10;0.80;;;;;;;-2.69;51.58;101398.86;117293;1185;24173;-53
2022/01/19 01:44:06;;;;;;;4.70;1.40;;;;;;;-2.71;51.70;101398.55;117270;1182;23449;-51
2022/01/19 01:46:48;;;;;;;4.20;1.10;;;;;;;-2.73;51.66;101404.63;117296;1182;24285;-60
2022/01/19 01:49:25;;;;;;;3.20;1.30;;;;;;;-2.75;51.74;101421.16;117226;1186;22952;-61
2022/01/19 01:54:41;;;;;;;3.20;1.20;;;;;;;-2.80;51.74;101421.73;117262;1181;21858;-60
2022/01/19 01:57:09;;;;;;;3.70;1.20;;;;;;;-2.81;51.56;101420.84;117305;1184;23440;-52
2022/01/19 01:59:37;;;;;;;3.60;1.10;;;;;;;-2.80;51.59;101427.56;117111;1184;23516;-60
2022/01/19 02:02:05;;;;;;;2.40;1.00;;;;;;;-2.81;51.71;101433.04;117302;1184;21844;-52
2022/01/19 02:04:40;;;;;;;3.80;1.20;;;;;;;-2.79;51.67;101434.85;117338;1181;21864;-60
2022/01/19 02:09:51;;;;;;;3.20;0.80;;;;;;;-2.78;51.56;101437.48;117322;1182;21857;-60
2022/01/19 02:23:44;;;;;;;2.80;1.10;;;;;;;-2.90;51.62;101412.41;117290;1181;22645;-51
2022/01/19 02:26:20;;;;;;;2.40;1.00;;;;;;;-2.91;51.64;101418.05;117260;1182;24169;-51
2022/01/19 02:29:04;;;;;;;2.20;0.70;;;;;;;-2.91;51.63;101421.45;117440;1184;21872;-51
2022/01/19 02:42:42;;;;;;;3.60;1.10;;;;;;;-3.00;51.84;101420.91;116898;1188;21887;-52
2022/01/19 02:50:32;;;;;;;4.20;1.50;;;;;;;-3.11;51.72;101420.97;116684;1189;23833;-60
2022/01/19 02:53:00;;;;;;;4.10;1.40;;;;;;;-3.16;51.69;101421.37;116677;1188;22664;-52
2022/01/19 02:55:34;;;;;;;2.20;1.00;;;;;;;-3.19;51.64;101426.63;116651;1186;21861;-60
2022/01/19 02:58:02;;;;;;;3.80;1.00;;;;;;;-3.23;51.74;101425.87;116752;1185;24718;-52
2022/01/19 03:08:42;;;;;;;1.80;0.80;;;;;;;-3.34;51.49;101420.45;116736;1181;23452;-52
2022/01/19 03:09:04;;;;;;;3.60;1.10;;;;;;;-3.36;51.52;101422.57;117099;1186;22616;-51
2022/01/19 03:11:34;;;;;;;8.30;1.80;;;;;;;-3.36;51.62;101430.14;117286;1186;21864;-52
2022/01/19 03:14:04;;;;;;;4.20;1.40;;;;;;;-3.35;51.72;101436.49;117337;1182;22628;-60
2022/01/19 03:16:32;;;;;;;;;;;;;;;-3.35;51.76;101437.56;117361;1176;21917;-51
2022/01/19 03:19:01;;;;;;;4.10;1.30;;;;;;;-3.35;51.70;101441.86;117293;1185;23500;-52
2022/01/19 03:21:29;;;;;;;4.50;1.70;;;;;;;-3.36;51.72;101447.12;117285;1183;23330;-52
2022/01/19 03:23:58;;;;;;;4.10;1.30;;;;;;;-3.36;51.69;101459.11;117266;1177;23605;-61
2022/01/19 03:26:27;;;;;;;3.70;1.10;;;;;;;-3.36;51.62;101462.86;117268;1186;21887;-52
2022/01/19 03:28:56;;;;;;;2.30;0.90;;;;;;;-3.36;51.75;101463.08;117319;1182;21858;-52
2022/01/19 03:31:24;;;;;;;3.40;1.20;;;;;;;-3.36;51.64;101467.38;117373;1176;23478;-60
2022/01/19 03:33:52;;;;;;;3.00;1.10;;;;;;;-3.35;51.81;101471.90;117312;1185;22646;-51
2022/01/19 03:36:20;;;;;;;3.10;1.10;;;;;;;-3.37;51.78;101476.92;117399;1184;22007;-60
2022/01/19 03:38:49;;;;;;;4.00;1.30;;;;;;;-3.39;51.75;101475.96;117391;1185;21854;-51
2022/01/19 03:41:17;;;;;;;3.70;1.10;;;;;;;-3.41;51.73;101476.50;117280;1182;23659;-60
2022/01/19 03:43:45;;;;;;;2.80;0.90;;;;;;;-3.42;51.78;101477.65;117319;1183;21860;-60
2022/01/19 03:46:15;;;;;;;4.70;1.00;;;;;;;-3.42;51.84;101475.70;117291;1186;23953;-61
2022/01/19 03:48:53;;;;;;;4.00;1.20;;;;;;;-3.43;51.76;101476.52;117017;1187;21848;-61
2022/01/19 03:51:22;;;;;;;4.40;1.10;;;;;;;-3.45;51.70;101477.80;117238;1182;24171;-51
2022/01/19 03:53:50;;;;;;;4.30;1.00;;;;;;;-3.47;51.72;101475.61;117322;1186;23583;-60
2022/01/19 03:56:19;;;;;;;2.20;1.10;;;;;;;-3.51;51.84;101474.17;117291;1186;24173;-60
2022/01/19 03:58:48;;;;;;;4.60;1.50;;;;;;;-3.52;51.86;101474.80;117125;1180;24178;-61
2022/01/19 04:01:17;;;;;;;3.70;1.40;;;;;;;-3.52;51.81;101477.20;117238;1182;25132;-52
2022/01/19 04:06:23;;;;;;;4.20;1.20;;;;;;;-3.48;51.83;101475.55;117069;1183;21917;-61
2022/01/19 04:08:52;;;;;;;4.70;1.00;;;;;;;-3.45;51.85;101477.79;116987;1185;22932;-52
2022/01/19 04:11:22;;;;;;;5.00;1.20;;;;;;;-3.44;51.88;101487.49;117063;1187;23548;-53
2022/01/19 04:16:24;;;;;;;3.70;1.00;;;;;;;-3.44;51.88;101487.48;117281;1186;21959;-60
2022/01/19 04:19:02;;;;;;;4.40;1.30;;;;;;;-3.43;51.92;101492.33;117334;1176;23708;-60
2022/01/19 04:21:30;;;;;;;3.80;1.10;;;;;;;-3.43;51.91;101486.48;117127;1185;21960;-51
2022/01/19 04:23:59;;;;;;;3.50;1.10;;;;;;;-3.44;52.07;101494.35;117219;1186;21980;-61
2022/01/19 04:26:27;;;;;;;3.90;1.40;;;;;;;-3.45;52.01;101497.89;117232;1186;23590;-51
2022/01/19 04:28:56;;;;;;;2.30;1.00;;;;;;;-3.46;52.06;101497.98;117034;1186;22504;-60
2022/01/19 04:31:24;;;;;;;5.50;1.20;;;;;;;-3.47;52.12;101501.02;117242;1182;21858;-60
2022/01/19 04:33:53;;;;;;;3.80;1.20;;;;;;;-3.48;52.14;101498.73;117244;1186;21894;-51
2022/01/19 05:06:42;;;;;;;4.70;1.90;;;;;;;-3.72;52.05;101513.82;117227;1179;23468;-61
2022/01/19 05:09:39;;;;;;;4.40;1.40;;;;;;;-3.73;52.10;101513.61;117219;1186;21942;-50
2022/01/19 05:14:54;;;;;;;4.00;1.30;;;;;;;-3.75;52.12;101505.77;117230;1186;22709;-52
2022/01/19 05:17:38;;;;;;;4.30;1.30;;;;;;;-3.77;51.98;101506.55;117202;1182;23465;-51
2022/01/19 05:20:08;;;;;;;4.80;1.60;;;;;;;-3.78;52.05;101501.48;117203;1184;23475;-51
2022/01/19 05:22:37;;;;;;;5.90;1.10;;;;;;;-3.78;52.08;101498.88;117077;1184;21856;-51
2022/01/19 05:25:05;;;;;;;5.20;1.70;;;;;;;-3.78;52.15;101498.02;117265;1178;21856;-61
2022/01/19 05:27:35;;;;;;;;;;;;;;;-3.79;52.14;101496.77;117281;1178;23472;-61
2022/01/19 05:30:04;;;;;;;3.20;1.20;;;;;;;-3.81;52.01;101493.24;117237;1176;23469;-51
2022/01/19 05:32:33;;;;;;;2.70;0.90;;;;;;;-3.81;52.11;101492.67;117086;1186;23237;-49
2022/01/19 05:35:02;;;;;;;5.60;1.40;;;;;;;-3.83;52.07;101494.61;117195;1186;24256;-65
2022/01/19 05:37:36;;;;;;;5.70;1.30;;;;;;;-3.84;52.02;101493.73;117193;1176;23483;-49
2022/01/19 05:40:06;;;;;;;5.60;1.10;;;;;;;-3.84;52.16;101500.91;117130;1179;24164;-49
2022/01/19 05:42:34;;;;;;;5.60;1.20;;;;;;;-3.86;52.14;101513.78;117178;1186;23043;-63
2022/01/19 05:45:04;;;;;;;4.10;1.50;;;;;;;-3.87;52.12;101516.11;117042;1184;21976;-63
2022/01/19 05:47:33;;;;;;;5.10;1.50;;;;;;;-3.88;52.31;101522.95;117230;1185;21905;-62
2022/01/19 05:50:01;;;;;;;4.50;1.80;;;;;;;-3.87;52.12;101528.30;117237;1186;21943;-64
2022/01/19 05:52:29;;;;;;;3.60;1.30;;;;;;;-3.88;52.32;101532.92;117233;1186;23464;-60
2022/01/19 05:54:57;;;;;;;4.70;1.70;;;;;;;-3.86;52.34;101541.08;117071;1178;23494;-63
2022/01/19 05:57:26;;;;;;;5.70;1.50;;;;;;;-3.85;52.36;101543.41;117206;1186;22096;-51
2022/01/19 05:59:54;;;;;;;4.30;1.90;;;;;;;-3.83;52.19;101542.95;117083;1182;23651;-51
2022/01/19 06:02:22;;;;;;;6.40;2.00;;;;;;;-3.84;52.44;101543.30;117205;1182;22978;-61
2022/01/19 06:04:50;;;;;;;4.10;1.50;;;;;;;-3.81;52.37;101544.52;117178;1182;23503;-61
2022/01/19 06:07:19;;;;;;;5.10;1.80;;;;;;;-3.78;52.42;101537.50;117243;1182;23501;-51
2022/01/19 06:10:00;;;;;;;4.30;1.30;;;;;;;-3.75;52.45;101536.15;117277;1182;22455;-61
2022/01/19 06:12:28;;;;;;;4.40;1.40;;;;;;;-3.70;52.33;101526.33;117148;1186;23455;-53
2022/01/19 06:14:57;;;;;;;4.40;1.60;;;;;;;-3.65;52.48;101523.92;117113;1189;22624;-63
2022/01/19 06:17:26;;;;;;;4.90;1.40;;;;;;;-3.59;52.49;101525.16;117044;1186;23482;-52
2022/01/19 06:19:57;;;;;;;4.00;1.50;;;;;;;-3.52;52.57;101529.52;117102;1186;22648;-52
2022/01/19 06:22:26;;;;;;;3.80;1.60;;;;;;;-3.44;52.64;101533.45;117232;1181;24146;-62
2022/01/19 06:24:57;;;;;;;5.60;2.00;;;;;;;-3.39;52.67;101538.76;117049;1178;23499;-62
2022/01/19 06:27:25;;;;;;;;;;;;;;;-3.34;52.56;101544.37;116998;1181;22930;-52
2022/01/19 06:29:54;;;;;;;3.40;1.40;;;;;;;-3.30;52.60;101543.79;117296;1181;23016;-53
2022/01/19 06:32:23;;;;;;;5.30;1.10;;;;;;;-3.24;52.55;101544.97;117226;1181;22062;-61
2022/01/19 06:34:53;;;;;;;5.00;2.60;;;;;;;-3.18;52.67;101540.23;117004;1186;21877;-52
2022/01/19 06:37:23;;;;;;;5.90;1.30;;;;;;;-3.13;52.76;101546.56;117008;1187;22651;-61
2022/01/19 06:39:52;;;;;;;5.10;1.60;;;;;;;-3.06;52.55;101553.81;116996;1178;23650;-61
2022/01/19 06:42:21;;;;;;;5.80;1.60;;;;;;;-3.00;52.61;101548.02;117188;1186;21922;-62
2022/01/19 06:44:50;;;;;;;5.30;1.50;;;;;;;-2.92;52.73;101548.99;117192;1186;21859;-61
2022/01/19 06:47:19;;;;;;;4.80;1.60;;;;;;;-2.84;52.68;101547.61;116783;1188;21863;-53
2022/01/19 06:49:47;;;;;;;6.90;1.80;;;;;;;-2.75;52.80;101563.10;116963;1186;23590;-61
2022/01/19 06:52:17;;;;;;;;;;;;;;;-2.67;52.80;101565.30;117066;1186;21892;-62
2022/01/19 06:54:46;;;;;;;6.30;1.40;;;;;;;-2.61;52.71;101573.39;117083;1188;21860;-51
2022/01/19 06:57:21;;;;;;;3.50;1.60;;;;;;;-2.54;52.73;101580.52;117075;1185;23457;-52
2022/01/19 06:59:51;;;;;;;3.50;1.20;;;;;;;-2.46;52.86;101584.27;117018;1181;22910;-62
2022/01/19 07:02:20;;;;;;;5.50;1.60;;;;;;;-2.38;52.70;101587.14;116980;1179;24172;-52
2022/01/19 07:04:49;;;;;;;5.00;1.90;;;;;;;-2.32;52.58;101585.44;117154;1186;22549;-64
2022/01/19 07:07:19;;;;;;;4.10;1.60;;;;;;;-2.24;52.72;101584.19;117175;1182;21922;-51
2022/01/19 07:09:48;;;;;;;6.00;2.00;;;;;;;-2.15;52.72;101583.64;117071;1178;21850;-66
2022/01/19 07:12:17;;;;;;;5.00;1.40;;;;;;;-2.06;52.74;101572.65;117064;1186;22873;-62
2022/01/19 07:14:48;;;;;;;5.30;1.70;;;;;;;-1.99;52.84;101570.98;117131;1183;22801;-53
2022/01/19 07:17:18;;;;;;;4.40;1.50;;;;;;;-1.90;52.83;101572.20;117044;1183;24171;-53
2022/01/19 07:19:47;;;;;;;4.90;1.70;;;;;;;-1.79;52.70;101573.33;116817;1180;23649;-54
2022/01/19 07:22:16;;;;;;;3.60;1.40;;;;;;;-1.73;52.53;101574.52;117295;1185;21887;-54
2022/01/19 07:24:45;;;;;;;5.70;1.30;;;;;;;-1.65;52.76;101576.90;116831;1186;21872;-62
2022/01/19 07:27:13;;;;;;;4.80;1.60;;;;;;;-1.58;52.70;101572.95;117045;1178;23560;-54
2022/01/19 07:29:42;;;;;;;7.60;2.40;;;;;;;-1.47;52.64;101571.66;117073;1185;22664;-52
2022/01/19 07:32:12;;;;;;;32.40;10.30;;;;;;;-1.36;52.74;101577.83;119155;1183;21845;-52
2022/01/19 07:34:40;;;;;;;43.10;16.20;;;;;;;-1.28;52.90;101581.52;119029;1186;23560;-52
2022/01/19 07:37:11;;;;;;;79.30;26.90;;;;;;;-1.17;52.62;101581.92;117152;1179;23456;-51
2022/01/19 07:39:40;;;;;;;24.40;10.00;;;;;;;-1.06;52.74;101578.55;117109;1186;21954;-51
2022/01/19 07:42:09;;;;;;;12.10;4.00;;;;;;;-0.95;52.82;101581.05;117779;1183;23836;-60
2022/01/19 07:44:39;;;;;;;5.20;2.60;;;;;;;-0.85;52.98;101576.94;118056;1186;23558;-52
2022/01/19 07:47:07;;;;;;;5.60;1.80;;;;;;;-0.76;52.97;101574.17;117128;1187;21871;-52
2022/01/19 07:49:37;;;;;;;6.50;1.70;;;;;;;-0.70;52.63;101570.45;117251;1186;23455;-61
2022/01/19 07:52:06;;;;;;;5.20;1.50;;;;;;;-0.63;52.83;101562.23;117248;1178;21899;-60
2022/01/19 07:54:34;;;;;;;3.50;1.50;;;;;;;-0.54;52.69;101564.23;117191;1186;23491;-51
2022/01/19 07:57:03;;;;;;;3.30;1.60;;;;;;;-0.45;52.81;101562.80;117232;1183;24172;-60
2022/01/19 07:59:32;;;;;;;3.90;1.50;;;;;;;-0.30;52.84;101559.06;117240;1185;24701;-52
2022/01/19 08:02:00;;;;;;;4.50;1.20;;;;;;;-0.18;53.04;101549.16;117335;1185;22644;-61
2022/01/19 08:04:30;;;;;;;3.30;1.10;;;;;;;-0.08;52.96;101550.18;117235;1181;22870;-61
2022/01/19 08:06:59;;;;;;;3.50;1.20;;;;;;;0.03;52.82;101543.48;117321;1182;22802;-60
2022/01/19 08:09:27;;;;;;;3.60;1.70;;;;;;;0.13;52.77;101541.38;117184;1186;23453;-52
2022/01/19 08:11:55;;;;;;;3.70;1.30;;;;;;;0.26;52.77;101546.12;117227;1186;23468;-61
2022/01/19 08:14:24;;;;;;;2.80;0.90;;;;;;;0.36;53.07;101546.97;117249;1186;21857;-60
2022/01/19 08:16:56;;;;;;;4.30;1.40;;;;;;;0.47;52.62;101546.62;117277;1186;23469;-60
2022/01/19 08:19:25;;;;;;;3.80;1.50;;;;;;;0.59;52.70;101553.08;117286;1185;23525;-60
2022/01/19 08:21:53;;;;;;;6.80;1.20;;;;;;;0.72;52.95;101559.68;117243;1182;24243;-61
2022/01/19 08:24:22;;;;;;;3.10;1.40;;;;;;;0.80;52.53;101561.80;117288;1183;24214;-53
2022/01/19 08:26:50;;;;;;;2.30;0.80;;;;;;;0.90;52.57;101562.11;117340;1185;23593;-52
2022/01/19 08:29:18;;;;;;;3.60;1.80;;;;;;;1.00;52.52;101559.42;117204;1182;21929;-53
2022/01/19 08:31:47;;;;;;;3.80;1.30;;;;;;;1.03;52.45;101558.55;117210;1176;23544;-53
2022/01/19 08:34:17;;;;;;;4.60;1.60;;;;;;;1.10;52.70;101555.02;117187;1185;22315;-52
2022/01/19 08:36:49;;;;;;;4.80;1.40;;;;;;;1.23;52.79;101551.67;117126;1188;22628;-61
2022/01/19 08:39:21;;;;;;;2.90;0.90;;;;;;;1.40;53.02;101552.73;117322;1183;23635;-61
2022/01/19 08:41:49;;;;;;;3.50;1.60;;;;;;;1.52;53.00;101543.75;117250;1183;23510;-61
2022/01/19 08:44:18;;;;;;;2.40;1.00;;;;;;;1.62;52.31;101545.58;117288;1181;23471;-53
2022/01/19 08:46:46;;;;;;;4.30;1.30;;;;;;;1.70;52.40;101540.52;117280;1176;21860;-60
2022/01/19 08:49:15;;;;;;;3.20;1.20;;;;;;;1.78;52.22;101537.08;117089;1186;21865;-49
2022/01/19 08:51:44;;;;;;;3.40;1.30;;;;;;;1.87;52.29;101533.63;117257;1185;21856;-62
2022/01/19 08:54:13;;;;;;;2.90;0.90;;;;;;;1.98;52.47;101538.08;117124;1185;22513;-62
2022/01/19 08:56:42;;;;;;;2.80;1.00;;;;;;;2.10;52.33;101538.91;117296;1180;23541;-62
2022/01/19 08:59:10;;;;;;;3.40;0.80;;;;;;;2.28;52.34;101526.61;117089;1184;22882;-62
2022/01/19 09:01:38;;;;;;;3.50;1.10;;;;;;;2.43;52.27;101535.89;117264;1182;21861;-54
2022/01/19 09:04:07;;;;;;;4.30;1.10;;;;;;;2.58;52.44;101533.19;117041;1186;22927;-54
2022/01/19 09:06:36;;;;;;;2.50;1.20;;;;;;;2.71;52.09;101526.03;117343;1183;22723;-63
2022/01/19 09:09:24;;;;;;;3.70;1.00;;;;;;;2.87;51.83;101522.98;117237;1185;21855;-54
2022/01/19 09:11:54;;;;;;;3.10;0.90;;;;;;;3.00;52.01;101517.39;117057;1182;22646;-54
2022/01/19 09:14:23;;;;;;;7.90;1.30;;;;;;;3.10;52.17;101513.11;117161;1182;22833;-63
2022/01/19 09:16:51;;;;;;;1.90;0.90;;;;;;;3.18;51.85;101510.44;117178;1186;22924;-55
2022/01/19 09:19:20;;;;;;;4.10;1.30;;;;;;;3.22;51.79;101502.10;117088;1186;24172;-63
2022/01/19 09:21:49;;;;;;;3.70;1.30;;;;;;;3.26;51.12;101496.84;117111;1188;22926;-63
2022/01/19 09:24:18;;;;;;;4.20;1.10;;;;;;;3.29;51.46;101504.91;116997;1187;21872;-54
2022/01/19 09:26:46;;;;;;;3.50;1.20;;;;;;;3.41;51.82;101503.80;117113;1185;23554;-63
2022/01/19 09:29:16;;;;;;;2.20;0.80;;;;;;;3.54;51.83;101504.04;117076;1182;24158;-55
2022/01/19 09:31:45;;;;;;;3.40;0.70;;;;;;;3.58;51.20;101505.40;117175;1179;22580;-54
2022/01/19 09:34:19;;;;;;;1.80;0.70;;;;;;;3.60;51.51;101504.42;117286;1185;23555;-63
2022/01/19 09:36:48;;;;;;;5.50;0.90;;;;;;;3.65;51.58;101498.17;117008;1187;21892;-63
2022/01/19 09:39:23;;;;;;;3.30;0.90;;;;;;;3.74;51.70;101493.97;117101;1185;22319;-55
2022/01/19 09:41:52;;;;;;;2.60;0.90;;;;;;;3.70;50.58;101492.13;117028;1182;21845;-63
2022/01/19 09:44:22;;;;;;;2.50;0.90;;;;;;;3.70;50.40;101494.89;117219;1182;22969;-62
2022/01/19 09:46:52;;;;;;;2.90;0.70;;;;;;;3.67;50.69;101494.25;117118;1183;23557;-63
2022/01/19 09:49:21;;;;;;;2.30;0.70;;;;;;;3.70;50.70;101496.29;117132;1185;21953;-55
2022/01/19 09:51:51;;;;;;;2.60;1.00;;;;;;;3.78;50.98;101490.63;117088;1188;22129;-62
2022/01/19 09:54:26;;;;;;;3.70;1.10;;;;;;;3.86;50.99;101492.28;118640;1185;21861;-56
2022/01/19 09:56:54;;;;;;;2.70;0.90;;;;;;;3.91;50.43;101484.30;117153;1183;23024;-62
2022/01/19 09:59:23;;;;;;;10.90;5.10;;;;;;;3.90;50.12;101489.10;117116;1184;23464;-61
2022/01/19 10:01:55;;;;;;;5.90;2.00;;;;;;;3.96;50.63;101488.08;117192;1186;22039;-52
2022/01/19 10:04:29;;;;;;;11.10;2.50;;;;;;;4.04;50.09;101490.24;117171;1183;23702;-61
2022/01/19 10:07:13;;;;;;;2.20;0.90;;;;;;;4.02;50.03;101489.51;117262;1182;23456;-53
2022/01/19 10:09:53;;;;;;;3.10;0.90;;;;;;;4.09;50.20;101488.34;117190;1184;23577;-60
2022/01/19 10:18:29;;;;;;;2.20;0.70;;;;;;;4.28;50.41;101484.41;117159;1186;24246;-60
2022/01/19 10:21:05;;;;;;;2.90;0.90;;;;;;;4.34;50.25;101482.00;117126;1186;21868;-61
2022/01/19 10:23:45;;;;;;;5.90;2.60;;;;;;;4.42;50.15;101481.02;117161;1186;21862;-63
2022/01/19 10:26:26;;;;;;;5.10;2.00;;;;;;;4.46;49.76;101479.75;117079;1187;21907;-54
2022/01/19 10:29:01;;;;;;;2.80;1.00;;;;;;;4.42;49.22;101477.02;117062;1186;21914;-54
2022/01/19 10:31:31;;;;;;;2.80;1.00;;;;;;;4.33;49.04;101483.19;117212;1185;24072;-57
2022/01/19 10:34:14;;;;;;;2.10;0.70;;;;;;;4.27;49.52;101474.33;117194;1182;22928;-61
2022/01/19 10:36:48;;;;;;;2.40;0.70;;;;;;;4.27;49.91;101469.80;117076;1186;21996;-62
2022/01/19 10:39:18;;;;;;;2.80;0.80;;;;;;;4.32;49.33;101464.40;117081;1186;21985;-60
2022/01/19 10:41:59;;;;;;;2.80;0.70;;;;;;;4.39;49.61;101461.30;116962;1180;23560;-54
2022/01/19 10:44:36;;;;;;;1.70;0.80;;;;;;;4.47;49.48;101452.15;117135;1183;23654;-60
2022/01/19 10:47:56;;;;;;;1.90;0.70;;;;;;;4.53;49.33;101452.50;117120;1182;23585;-61
2022/01/19 10:50:28;;;;;;;3.50;1.00;;;;;;;4.65;49.92;101456.15;117177;1185;21853;-61
2022/01/19 10:53:03;;;;;;;3.20;0.90;;;;;;;4.77;49.70;101457.00;117198;1184;23723;-55
2022/01/19 10:55:38;;;;;;;2.50;0.50;;;;;;;4.82;49.26;101458.54;117220;1185;21965;-61
2022/01/19 10:58:16;;;;;;;1.30;0.50;;;;;;;4.82;48.95;101462.40;117100;1179;22963;-61
2022/01/19 11:00:51;;;;;;;1.90;0.80;;;;;;;4.85;49.38;101460.04;117062;1182;21908;-55
2022/01/19 11:03:21;;;;;;;2.70;0.90;;;;;;;4.87;49.55;101460.79;116992;1186;21964;-62
2022/01/19 11:05:50;;;;;;;11.40;4.80;;;;;;;4.92;49.47;101458.83;116983;1183;25679;-55
2022/01/19 11:08:21;;;;;;;43.60;18.30;;;;;;;4.94;49.79;101456.60;117217;1185;22943;-56
2022/01/19 11:10:52;;;;;;;46.30;23.00;;;;;;;5.01;49.83;101453.52;116966;1189;21994;-55
2022/01/19 11:13:39;;;;;;;16.90;8.20;;;;;;;5.10;49.57;101453.77;117043;1185;23594;-55
2022/01/19 11:16:07;;;;;;;14.30;5.40;;;;;;;5.10;49.11;101452.19;117122;1183;21899;-62
2022/01/19 11:18:44;;;;;;;7.30;2.40;;;;;;;5.01;49.40;101444.98;117151;1185;23100;-55
2022/01/19 11:21:13;;;;;;;;;;;;;;;4.95;49.30;101449.02;117206;1186;21839;-61
2022/01/19 11:24:11;;;;;;;19.50;11.50;;;;;;;4.95;49.28;101449.50;117152;1186;24141;-61
2022/01/19 11:26:40;;;;;;;11.80;6.30;;;;;;;4.93;48.20;101446.15;117163;1185;21974;-54
2022/01/19 11:29:14;;;;;;;9.20;4.10;;;;;;;4.94;48.87;101438.88;117076;1188;23558;-61
2022/01/19 11:31:43;;;;;;;15.30;7.90;;;;;;;5.03;49.33;101434.27;117160;1183;22928;-61
2022/01/19 11:34:11;;;;;;;5.60;2.90;;;;;;;5.23;49.37;101426.96;117212;1185;21899;-54
2022/01/19 11:36:43;;;;;;;6.20;3.40;;;;;;;5.39;48.99;101421.45;117057;1185;23482;-61
2022/01/19 11:39:17;;;;;;;15.20;7.70;;;;;;;5.44;48.32;101422.64;117272;1185;22806;-54
2022/01/19 11:41:54;;;;;;;6.60;3.00;;;;;;;5.46;48.31;101419.73;117339;1185;23014;-55
2022/01/19 11:44:28;;;;;;;6.60;2.80;;;;;;;5.46;48.10;101418.34;117254;1182;24202;-61
2022/01/19 11:47:22;;;;;;;4.90;2.60;;;;;;;5.43;48.25;101421.02;117169;1185;23648;-61
2022/01/19 11:49:54;;;;;;;3.70;2.10;;;;;;;5.43;48.50;101417.37;117197;1185;21851;-55
2022/01/19 11:52:49;;;;;;;3.80;1.80;;;;;;;5.43;48.47;101421.91;117416;1186;21889;-62
2022/01/19 11:55:19;;;;;;;6.30;2.70;;;;;;;5.39;48.41;101421.81;117087;1185;22646;-62
2022/01/19 11:57:49;;;;;;;9.60;2.60;;;;;;;5.35;47.96;101423.80;117368;1183;21857;-55
2022/01/19 12:00:30;;;;;;;2.40;1.10;;;;;;;5.30;47.91;101426.11;117065;1182;23680;-55
2022/01/19 12:03:16;;;;;;;2.80;1.30;;;;;;;5.29;48.28;101425.04;117194;1185;21865;-55
2022/01/19 12:06:05;;;;;;;18.60;7.10;;;;;;;5.27;47.47;101416.96;117242;1182;23713;-55
2022/01/19 12:08:36;;;;;;;33.80;10.40;;;;;;;5.26;47.73;101409.11;117083;1186;22966;-61
2022/01/19 12:11:26;;;;;;;15.10;5.60;;;;;;;5.22;47.52;101409.89;117073;1185;23557;-61
2022/01/19 12:14:17;;;;;;;4.30;1.70;;;;;;;5.19;47.49;101413.48;117132;1182;22927;-61
2022/01/19 12:17:01;;;;;;;4.30;2.00;;;;;;;5.17;47.51;101415.66;117163;1186;24245;-54
2022/01/19 12:19:41;;;;;;;4.60;2.30;;;;;;;5.13;47.86;101423.73;117295;1185;22005;-61
2022/01/19 12:22:22;;;;;;;2.10;0.80;;;;;;;5.13;47.98;101424.09;117074;1185;21858;-55
2022/01/19 12:25:06;;;;;;;5.20;2.90;;;;;;;5.12;47.62;101425.80;117315;1177;21968;-61
2022/01/19 12:27:36;;;;;;;3.00;1.00;;;;;;;5.00;48.08;101423.05;117076;1185;22041;-54
2022/01/19 12:30:10;;;;;;;2.40;0.70;;;;;;;4.82;47.84;101420.12;117123;1185;22150;-54
2022/01/19 12:32:46;;;;;;;2.90;1.10;;;;;;;4.63;47.29;101427.05;118344;1182;23584;-61
2022/01/19 12:35:20;;;;;;;2.50;0.90;;;;;;;4.54;46.57;101424.71;118337;1185;22921;-54
2022/01/19 12:37:53;;;;;;;4.30;1.00;;;;;;;4.45;47.00;101424.10;117289;1182;24302;-54
2022/01/19 12:40:24;;;;;;;3.70;1.20;;;;;;;4.39;47.09;101423.05;117252;1186;23357;-57
2022/01/19 12:42:58;;;;;;;3.20;0.90;;;;;;;4.31;46.23;101422.84;117162;1185;21874;-54
2022/01/19 12:45:31;;;;;;;5.10;2.40;;;;;;;4.22;45.86;101429.48;117113;1186;23642;-60
2022/01/19 12:48:02;;;;;;;5.20;2.60;;;;;;;4.15;46.29;101429.13;117013;1188;21971;-55
2022/01/19 12:50:42;;;;;;;6.30;2.50;;;;;;;4.14;47.05;101432.39;117064;1186;22921;-54
2022/01/19 12:53:20;;;;;;;3.90;2.10;;;;;;;4.14;47.55;101436.73;117271;1179;21927;-54
2022/01/19 12:55:55;;;;;;;3.30;1.90;;;;;;;4.16;46.87;101434.02;117187;1186;22927;-60
2022/01/19 12:58:26;;;;;;;5.60;2.10;;;;;;;4.19;46.65;101430.81;117034;1186;24161;-54
2022/01/19 13:00:57;;;;;;;5.30;1.70;;;;;;;4.26;46.26;101426.99;117191;1186;22596;-54
2022/01/19 13:03:28;;;;;;;5.10;1.90;;;;;;;4.34;46.92;101419.63;116991;1179;21849;-60
2022/01/19 13:06:01;;;;;;;2.90;1.10;;;;;;;4.50;46.74;101411.72;117060;1187;21889;-53
2022/01/19 13:08:32;;;;;;;3.30;1.00;;;;;;;4.61;47.17;101408.40;117152;1186;21869;-54